Time;durP1;ratioP1;P1;durP2;ratioP2;P2;SDS_P1;SDS_P2;PMS_P1;PMS_P2;Temp;Humidity;BMP_temperature;BMP_pressure;BME280_temperature;BME280_humidity;BME280_pressure;Samples;Min_cycle;Max_cycle;Signal;HPM_P1;HPM_P2
2023/05/24 00:00:42;;;;;;;22.65;5.18;;;;;;;;;;5035231;28;20025;-59
2023/05/24 00:03:08;;;;;;;16.58;4.25;;;;;;;;;;5034704;28;20719;-59
2023/05/24 00:05:39;;;;;;;20.95;5.45;;;;;;;;;;5035709;28;20710;-59
2023/05/24 00:08:06;;;;;;;18.10;4.55;;;;;;;;;;5035415;28;20040;-58
2023/05/24 00:10:32;;;;;;;23.27;5.40;;;;;;;;;;5032492;28;20036;-59
2023/05/24 00:12:58;;;;;;;23.48;5.50;;;;;;;;;;5032594;28;20035;-59
2023/05/24 00:15:24;;;;;;;23.17;4.90;;;;;;;;;;5032216;28;20049;-58
2023/05/24 00:17:50;;;;;;;20.90;4.82;;;;;;;;;;5037126;28;20786;-59
2023/05/24 00:20:16;;;;;;;19.33;5.30;;;;;;;;;;5034206;28;20048;-59
2023/05/24 00:22:42;;;;;;;19.65;4.30;;;;;;;;;;5033597;28;20032;-59
2023/05/24 00:25:08;;;;;;;20.35;4.93;;;;;;;;;;5034309;28;20032;-59
2023/05/24 00:27:36;;;;;;;19.63;4.65;;;;;;;;;;5034759;28;20020;-59
2023/05/24 00:30:02;;;;;;;19.65;4.57;;;;;;;;;;5033540;28;20124;-59
2023/05/24 00:32:28;;;;;;;17.63;4.75;;;;;;;;;;5034519;28;20029;-58
2023/05/24 00:34:54;;;;;;;26.92;5.68;;;;;;;;;;5034960;28;20044;-59
2023/05/24 00:37:20;;;;;;;20.35;5.78;;;;;;;;;;5034806;28;20032;-59
2023/05/24 00:39:46;;;;;;;16.15;5.00;;;;;;;;;;5035024;28;20037;-59
2023/05/24 00:42:12;;;;;;;16.20;4.57;;;;;;;;;;5033567;28;20072;-59
2023/05/24 00:44:38;;;;;;;17.60;5.00;;;;;;;;;;5033909;28;20104;-59
2023/05/24 00:47:04;;;;;;;17.90;5.15;;;;;;;;;;5033419;28;20025;-59
2023/05/24 00:49:31;;;;;;;18.65;4.15;;;;;;;;;;5033472;28;20041;-59
2023/05/24 00:51:57;;;;;;;20.55;4.95;;;;;;;;;;5032090;28;20039;-59
2023/05/24 00:54:25;;;;;;;20.85;3.78;;;;;;;;;;5033067;28;20048;-59
2023/05/24 00:56:51;;;;;;;20.30;4.05;;;;;;;;;;5034119;28;20059;-59
2023/05/24 00:59:17;;;;;;;19.17;4.80;;;;;;;;;;5035456;28;20111;-59
2023/05/24 01:01:45;;;;;;;16.27;5.03;;;;;;;;;;5032930;28;20037;-60
2023/05/24 01:04:12;;;;;;;19.55;4.30;;;;;;;;;;5034748;28;20044;-59
2023/05/24 01:06:56;;;;;;;18.40;4.72;;;;;;;;;;5037450;28;20067;-58
2023/05/24 01:09:28;;;;;;;21.52;5.53;;;;;;;;;;5038329;28;20029;-59
2023/05/24 01:12:03;;;;;;;12.88;4.05;;;;;;;;;;5038090;28;20060;-59
2023/05/24 01:14:36;;;;;;;16.10;4.47;;;;;;;;;;5038324;28;20061;-59
2023/05/24 01:17:08;;;;;;;15.93;4.32;;;;;;;;;;5038074;28;20033;-59
2023/05/24 01:19:35;;;;;;;14.40;3.70;;;;;;;;;;5039236;28;20028;-59
2023/05/24 01:22:12;;;;;;;17.27;4.68;;;;;;;;;;5037675;28;20029;-59
2023/05/24 01:24:52;;;;;;;18.10;4.32;;;;;;;;;;5038723;28;20044;-59
2023/05/24 01:27:18;;;;;;;20.80;4.55;;;;;;;;;;5038346;28;20025;-59
2023/05/24 01:29:52;;;;;;;18.50;5.50;;;;;;;;;;5037898;28;21202;-59
2023/05/24 01:32:18;;;;;;;19.88;4.85;;;;;;;;;;5038739;28;20063;-58
2023/05/24 01:34:44;;;;;;;17.67;3.85;;;;;;;;;;5037689;28;20045;-59
2023/05/24 01:37:10;;;;;;;17.88;4.22;;;;;;;;;;5037288;28;20115;-58
2023/05/24 01:39:36;;;;;;;15.15;4.15;;;;;;;;;;5035864;28;20044;-59
2023/05/24 01:42:11;;;;;;;16.73;4.60;;;;;;;;;;5038399;28;20085;-59
2023/05/24 01:44:40;;;;;;;15.20;3.88;;;;;;;;;;5036350;28;20048;-58
2023/05/24 01:47:08;;;;;;;19.55;4.65;;;;;;;;;;5038617;28;20037;-58
2023/05/24 01:49:38;;;;;;;13.77;4.05;;;;;;;;;;5037121;28;20056;-59
2023/05/24 01:52:06;;;;;;;17.65;3.90;;;;;;;;;;5036771;28;21744;-59
2023/05/24 01:54:33;;;;;;;13.13;3.55;;;;;;;;;;5038397;28;20115;-59
2023/05/24 01:57:00;;;;;;;17.10;3.60;;;;;;;;;;5038810;28;20040;-59
2023/05/24 01:59:28;;;;;;;14.75;4.75;;;;;;;;;;5037722;28;20807;-59
2023/05/24 02:01:54;;;;;;;22.35;4.93;;;;;;;;;;5037965;28;20634;-59
2023/05/24 02:04:20;;;;;;;14.38;3.88;;;;;;;;;;5036644;28;20039;-59
2023/05/24 02:06:46;;;;;;;19.08;5.00;;;;;;;;;;5038746;28;20036;-59
2023/05/24 02:09:12;;;;;;;17.52;4.35;;;;;;;;;;5038085;28;20074;-58
2023/05/24 02:11:38;;;;;;;20.77;4.47;;;;;;;;;;5035523;28;20063;-59
2023/05/24 02:14:04;;;;;;;19.85;5.57;;;;;;;;;;5038147;28;20041;-59
2023/05/24 02:16:32;;;;;;;19.17;4.07;;;;;;;;;;5037462;28;20067;-59
2023/05/24 02:18:58;;;;;;;17.90;3.88;;;;;;;;;;5036152;28;20032;-59
2023/05/24 02:21:24;;;;;;;18.48;4.78;;;;;;;;;;5036504;28;20659;-58
2023/05/24 02:23:50;;;;;;;13.60;3.58;;;;;;;;;;5035786;28;21204;-59
2023/05/24 02:26:17;;;;;;;25.25;4.65;;;;;;;;;;5036154;28;20372;-58
2023/05/24 02:28:43;;;;;;;19.27;4.45;;;;;;;;;;5036415;28;20124;-58
2023/05/24 02:31:10;;;;;;;14.20;3.47;;;;;;;;;;5035581;28;20044;-59
2023/05/24 02:33:36;;;;;;;15.48;3.95;;;;;;;;;;5037804;28;20545;-58
2023/05/24 02:36:02;;;;;;;20.60;4.15;;;;;;;;;;5037755;28;20492;-59
2023/05/24 02:38:28;;;;;;;14.45;3.83;;;;;;;;;;5036564;28;20068;-58
2023/05/24 02:40:55;;;;;;;21.23;4.40;;;;;;;;;;5023564;28;20118;-58
2023/05/24 02:43:21;;;;;;;13.93;3.80;;;;;;;;;;5035969;28;20040;-58
2023/05/24 02:45:47;;;;;;;15.43;4.15;;;;;;;;;;5035263;28;20754;-59
2023/05/24 02:48:13;;;;;;;17.98;3.45;;;;;;;;;;5038478;28;20044;-58
2023/05/24 02:50:39;;;;;;;15.80;4.35;;;;;;;;;;5036136;28;20119;-58
2023/05/24 02:53:05;;;;;;;15.73;4.07;;;;;;;;;;5035973;28;20055;-58
2023/05/24 02:55:32;;;;;;;17.92;3.47;;;;;;;;;;5037343;28;20028;-59
2023/05/24 02:57:58;;;;;;;13.45;3.63;;;;;;;;;;5037872;28;20047;-59
2023/05/24 03:00:24;;;;;;;16.80;3.75;;;;;;;;;;5037246;28;20051;-59
2023/05/24 03:02:51;;;;;;;17.15;4.40;;;;;;;;;;5034211;28;20032;-59
2023/05/24 03:05:17;;;;;;;12.23;3.30;;;;;;;;;;5037170;28;20017;-59
2023/05/24 03:07:43;;;;;;;13.57;3.03;;;;;;;;;;5036834;28;20064;-58
2023/05/24 03:10:09;;;;;;;11.43;3.13;;;;;;;;;;5036940;28;20161;-58
2023/05/24 03:12:35;;;;;;;16.17;4.65;;;;;;;;;;5033796;28;20044;-59
2023/05/24 03:15:02;;;;;;;14.25;3.72;;;;;;;;;;5036221;28;20527;-59
2023/05/24 03:17:28;;;;;;;19.10;3.78;;;;;;;;;;5036476;28;20045;-58
2023/05/24 03:19:54;;;;;;;16.83;4.18;;;;;;;;;;5035930;28;20037;-58
2023/05/24 03:22:20;;;;;;;14.50;3.72;;;;;;;;;;5034255;28;20040;-58
2023/05/24 03:24:47;;;;;;;17.35;4.05;;;;;;;;;;5035539;28;20044;-58
2023/05/24 03:27:13;;;;;;;15.48;3.70;;;;;;;;;;5036357;28;20042;-58
2023/05/24 03:29:40;;;;;;;18.95;4.45;;;;;;;;;;5036260;28;20041;-59
2023/05/24 03:32:06;;;;;;;15.38;3.47;;;;;;;;;;5036351;28;20040;-59
2023/05/24 03:34:32;;;;;;;13.20;3.40;;;;;;;;;;5035982;28;20060;-59
2023/05/24 03:36:58;;;;;;;17.33;3.88;;;;;;;;;;5034708;28;20048;-59
2023/05/24 03:39:24;;;;;;;13.85;3.40;;;;;;;;;;5036767;28;20041;-59
2023/05/24 03:41:51;;;;;;;13.68;3.53;;;;;;;;;;5035925;28;20492;-59
2023/05/24 03:44:17;;;;;;;12.38;3.10;;;;;;;;;;5034391;28;20734;-58
2023/05/24 03:46:43;;;;;;;14.05;3.90;;;;;;;;;;5035629;28;20787;-59
2023/05/24 03:49:09;;;;;;;16.27;3.40;;;;;;;;;;5034871;28;20679;-59
2023/05/24 03:51:35;;;;;;;16.58;4.40;;;;;;;;;;5035875;28;20044;-58
2023/05/24 03:54:01;;;;;;;17.90;4.15;;;;;;;;;;5036016;28;20091;-59
2023/05/24 03:56:28;;;;;;;13.15;3.22;;;;;;;;;;5036170;28;20115;-58
2023/05/24 03:58:56;;;;;;;21.02;4.88;;;;;;;;;;5033913;28;20045;-59
2023/05/24 04:01:23;;;;;;;15.93;4.05;;;;;;;;;;5036162;28;20036;-59
2023/05/24 04:03:50;;;;;;;14.27;2.92;;;;;;;;;;5034918;28;20024;-58
2023/05/24 04:06:16;;;;;;;17.08;3.50;;;;;;;;;;5033269;28;20037;-59
2023/05/24 04:08:42;;;;;;;13.30;3.25;;;;;;;;;;5035450;28;20517;-58
2023/05/24 04:11:08;;;;;;;19.02;3.70;;;;;;;;;;5035569;28;20025;-59
2023/05/24 04:13:34;;;;;;;17.05;3.88;;;;;;;;;;5034612;28;20095;-59
2023/05/24 04:16:01;;;;;;;17.35;3.75;;;;;;;;;;5021393;28;20087;-59
2023/05/24 04:18:27;;;;;;;16.58;3.47;;;;;;;;;;5034959;28;20040;-59
2023/05/24 04:20:53;;;;;;;18.42;3.75;;;;;;;;;;5035743;28;20060;-58
2023/05/24 04:23:19;;;;;;;16.90;3.80;;;;;;;;;;5035787;28;20060;-59
2023/05/24 04:25:45;;;;;;;18.63;4.25;;;;;;;;;;5035780;28;20033;-59
2023/05/24 04:28:11;;;;;;;17.00;3.60;;;;;;;;;;5033695;28;20041;-59
2023/05/24 04:30:37;;;;;;;16.30;4.10;;;;;;;;;;5032796;28;20699;-58
2023/05/24 04:33:03;;;;;;;12.48;3.22;;;;;;;;;;5031860;28;20021;-59
2023/05/24 04:35:29;;;;;;;16.88;4.18;;;;;;;;;;5033718;28;20483;-59
2023/05/24 04:37:56;;;;;;;19.40;3.78;;;;;;;;;;5033438;28;21818;-59
2023/05/24 04:40:22;;;;;;;21.85;3.97;;;;;;;;;;5032927;28;20029;-58
2023/05/24 04:42:48;;;;;;;22.08;5.20;;;;;;;;;;5035513;28;20052;-59
2023/05/24 04:45:15;;;;;;;15.75;4.10;;;;;;;;;;5035287;28;20876;-59
2023/05/24 04:47:41;;;;;;;14.68;4.32;;;;;;;;;;5036025;28;20086;-59
2023/05/24 04:50:07;;;;;;;19.20;4.25;;;;;;;;;;5033918;28;20434;-59
2023/05/24 04:52:35;;;;;;;18.92;4.40;;;;;;;;;;5035598;28;20033;-59
2023/05/24 04:55:01;;;;;;;21.42;4.15;;;;;;;;;;5035409;28;20120;-59
2023/05/24 04:57:27;;;;;;;15.82;3.75;;;;;;;;;;5034754;28;20685;-59
2023/05/24 04:59:53;;;;;;;16.85;3.22;;;;;;;;;;5035067;28;20041;-59
2023/05/24 05:02:21;;;;;;;20.65;4.70;;;;;;;;;;5033191;28;20036;-59
2023/05/24 05:04:47;;;;;;;17.35;3.75;;;;;;;;;;5034282;28;20545;-59
2023/05/24 05:07:13;;;;;;;18.75;4.10;;;;;;;;;;5033747;28;20033;-59
2023/05/24 05:09:39;;;;;;;22.73;4.88;;;;;;;;;;5034054;28;20036;-59
2023/05/24 05:12:06;;;;;;;19.58;3.72;;;;;;;;;;5034194;28;20561;-59
2023/05/24 05:14:32;;;;;;;12.77;3.83;;;;;;;;;;5034400;28;20041;-58
2023/05/24 05:16:58;;;;;;;17.00;4.18;;;;;;;;;;5032534;28;20033;-59
2023/05/24 05:19:24;;;;;;;17.80;4.32;;;;;;;;;;5034771;28;20049;-59
2023/05/24 05:21:50;;;;;;;35.53;6.60;;;;;;;;;;5035461;28;20039;-59
2023/05/24 05:24:16;;;;;;;14.05;3.30;;;;;;;;;;5035457;28;20053;-59
2023/05/24 05:26:43;;;;;;;21.60;3.80;;;;;;;;;;5035162;28;20033;-58
2023/05/24 05:29:09;;;;;;;21.25;4.57;;;;;;;;;;5033903;28;20042;-59
2023/05/24 05:31:35;;;;;;;18.63;4.40;;;;;;;;;;5033495;28;20064;-59
2023/05/24 05:34:01;;;;;;;18.98;3.72;;;;;;;;;;5033509;28;20060;-58
2023/05/24 05:36:27;;;;;;;17.20;3.95;;;;;;;;;;5034983;28;21837;-59
2023/05/24 05:38:53;;;;;;;22.40;5.80;;;;;;;;;;5035703;28;20472;-59
2023/05/24 05:41:19;;;;;;;17.83;4.03;;;;;;;;;;5035376;28;20029;-59
2023/05/24 05:43:46;;;;;;;17.35;4.07;;;;;;;;;;5033697;28;20125;-59
2023/05/24 05:46:14;;;;;;;15.38;4.32;;;;;;;;;;5034454;28;20371;-59
2023/05/24 05:48:40;;;;;;;13.40;3.75;;;;;;;;;;5034510;28;20032;-59
2023/05/24 05:51:06;;;;;;;13.10;3.90;;;;;;;;;;5032735;28;20099;-59
2023/05/24 05:53:35;;;;;;;19.17;4.95;;;;;;;;;;5036598;28;20082;-58
2023/05/24 05:56:01;;;;;;;17.92;4.35;;;;;;;;;;5038975;28;20488;-59
2023/05/24 05:58:27;;;;;;;16.85;3.95;;;;;;;;;;5038545;28;20597;-59
2023/05/24 06:00:53;;;;;;;22.58;4.35;;;;;;;;;;5039179;28;20562;-59
2023/05/24 06:03:19;;;;;;;22.30;4.22;;;;;;;;;;5037102;28;20037;-59
2023/05/24 06:05:45;;;;;;;16.73;3.50;;;;;;;;;;5038379;28;20037;-59
2023/05/24 06:08:11;;;;;;;17.60;4.00;;;;;;;;;;5038497;28;20035;-58
2023/05/24 06:10:37;;;;;;;15.57;3.45;;;;;;;;;;5039024;28;20029;-59
2023/05/24 06:13:04;;;;;;;12.32;3.30;;;;;;;;;;5035405;28;20033;-59
2023/05/24 06:15:32;;;;;;;14.52;4.50;;;;;;;;;;5038443;28;20054;-58
2023/05/24 06:17:59;;;;;;;13.55;3.08;;;;;;;;;;5037818;28;20083;-58
2023/05/24 06:20:25;;;;;;;17.05;3.58;;;;;;;;;;5037697;28;20037;-58
2023/05/24 06:22:52;;;;;;;13.05;3.45;;;;;;;;;;5038693;28;20077;-59
2023/05/24 06:25:19;;;;;;;15.98;3.75;;;;;;;;;;5038253;28;20033;-59
2023/05/24 06:27:46;;;;;;;15.70;3.00;;;;;;;;;;5038018;28;20031;-59
2023/05/24 06:30:12;;;;;;;13.52;3.45;;;;;;;;;;5038014;28;20086;-59
2023/05/24 06:32:38;;;;;;;13.35;3.53;;;;;;;;;;5038887;28;20039;-58
2023/05/24 06:35:05;;;;;;;16.58;3.47;;;;;;;;;;5038350;28;20621;-59
2023/05/24 06:37:32;;;;;;;17.58;3.75;;;;;;;;;;5037158;28;20869;-59
2023/05/24 06:39:58;;;;;;;13.10;2.92;;;;;;;;;;5037159;28;20091;-59
2023/05/24 06:42:24;;;;;;;15.50;4.07;;;;;;;;;;5037168;28;20028;-59
2023/05/24 06:44:50;;;;;;;12.90;2.60;;;;;;;;;;5037802;28;20017;-59
2023/05/24 06:47:16;;;;;;;11.90;2.95;;;;;;;;;;5036091;28;20721;-59
2023/05/24 06:49:42;;;;;;;9.77;2.75;;;;;;;;;;5037203;28;20043;-58
2023/05/24 06:52:08;;;;;;;14.80;3.67;;;;;;;;;;5023148;28;20032;-58
2023/05/24 06:54:35;;;;;;;7.95;2.05;;;;;;;;;;5036613;28;20098;-59
2023/05/24 06:57:02;;;;;;;12.43;2.95;;;;;;;;;;5036799;28;20032;-58
2023/05/24 06:59:28;;;;;;;17.45;3.65;;;;;;;;;;5037826;28;20792;-59
2023/05/24 07:01:56;;;;;;;23.70;3.47;;;;;;;;;;5036155;28;20029;-59
2023/05/24 07:04:23;;;;;;;14.40;4.47;;;;;;;;;;5036674;28;20175;-59
2023/05/24 07:06:50;;;;;;;14.75;3.40;;;;;;;;;;5036722;28;20025;-58
2023/05/24 07:09:17;;;;;;;22.20;4.43;;;;;;;;;;5034750;28;20755;-59
2023/05/24 07:11:43;;;;;;;15.65;3.38;;;;;;;;;;5021904;28;20040;-59
2023/05/24 07:14:09;;;;;;;20.85;3.75;;;;;;;;;;5035492;28;20033;-59
2023/05/24 07:16:35;;;;;;;13.07;3.70;;;;;;;;;;5035963;28;20056;-59
2023/05/24 07:19:02;;;;;;;14.55;3.47;;;;;;;;;;5034378;28;20041;-59
2023/05/24 07:21:28;;;;;;;17.08;3.53;;;;;;;;;;5036688;28;20086;-59
2023/05/24 07:23:54;;;;;;;17.48;4.03;;;;;;;;;;5037192;28;20048;-59
2023/05/24 07:26:20;;;;;;;12.45;3.17;;;;;;;;;;5036545;28;20465;-59
2023/05/24 07:28:47;;;;;;;16.88;3.80;;;;;;;;;;5037429;28;20028;-59
2023/05/24 07:31:13;;;;;;;16.75;4.03;;;;;;;;;;5036253;28;20152;-59
2023/05/24 07:33:39;;;;;;;18.27;4.30;;;;;;;;;;5037424;28;20029;-58
2023/05/24 07:36:05;;;;;;;19.63;3.83;;;;;;;;;;5037430;28;20044;-59
2023/05/24 07:38:33;;;;;;;14.50;4.15;;;;;;;;;;5035465;28;20043;-59
2023/05/24 07:40:59;;;;;;;16.60;3.42;;;;;;;;;;5037633;28;20082;-59
2023/05/24 07:43:26;;;;;;;14.00;3.50;;;;;;;;;;5036765;28;20451;-58
2023/05/24 07:45:52;;;;;;;13.63;3.53;;;;;;;;;;5036866;28;20037;-59
2023/05/24 07:48:19;;;;;;;12.45;3.42;;;;;;;;;;5037891;28;20070;-59
2023/05/24 07:50:47;;;;;;;16.48;3.65;;;;;;;;;;5036616;28;20040;-59
2023/05/24 07:53:14;;;;;;;13.10;3.53;;;;;;;;;;5036431;28;20982;-58
2023/05/24 07:55:40;;;;;;;9.00;3.10;;;;;;;;;;5037431;28;20387;-59
2023/05/24 07:58:06;;;;;;;16.23;3.53;;;;;;;;;;5037267;28;20048;-59
2023/05/24 08:00:33;;;;;;;15.55;3.53;;;;;;;;;;5035682;28;20016;-59
2023/05/24 08:02:59;;;;;;;15.18;3.45;;;;;;;;;;5037292;28;20090;-59
2023/05/24 08:05:25;;;;;;;14.23;3.35;;;;;;;;;;5036802;28;20037;-59
2023/05/24 08:07:52;;;;;;;15.73;2.95;;;;;;;;;;5035439;28;20025;-59
2023/05/24 08:10:18;;;;;;;14.50;3.08;;;;;;;;;;5036580;28;21914;-58
2023/05/24 08:12:45;;;;;;;14.43;2.97;;;;;;;;;;5036670;28;20047;-58
2023/05/24 08:15:11;;;;;;;11.35;2.90;;;;;;;;;;5036051;28;20060;-59
2023/05/24 08:17:40;;;;;;;14.50;3.53;;;;;;;;;;5036528;28;20116;-58
2023/05/24 08:20:08;;;;;;;13.88;2.70;;;;;;;;;;5037101;28;20099;-57
2023/05/24 08:22:35;;;;;;;11.07;2.67;;;;;;;;;;5036077;28;20771;-58
2023/05/24 08:25:01;;;;;;;12.63;2.60;;;;;;;;;;5036359;28;20074;-57
2023/05/24 08:27:30;;;;;;;6.43;2.65;;;;;;;;;;5036624;28;20028;-58
2023/05/24 08:29:56;;;;;;;9.00;2.50;;;;;;;;;;5035212;28;20057;-58
2023/05/24 08:32:22;;;;;;;8.77;2.33;;;;;;;;;;5036182;28;20098;-57
2023/05/24 08:34:49;;;;;;;17.85;3.38;;;;;;;;;;5036469;28;20123;-58
2023/05/24 08:37:18;;;;;;;10.10;2.05;;;;;;;;;;5035961;28;20056;-58
2023/05/24 08:39:44;;;;;;;12.48;2.80;;;;;;;;;;5034498;28;20468;-58
2023/05/24 08:42:10;;;;;;;7.18;2.17;;;;;;;;;;5034924;28;20037;-58
2023/05/24 08:44:41;;;;;;;17.48;3.72;;;;;;;;;;5034894;28;20037;-58
2023/05/24 08:47:08;;;;;;;7.93;2.55;;;;;;;;;;5034998;28;20123;-58
2023/05/24 08:49:36;;;;;;;8.50;2.08;;;;;;;;;;5036207;28;20044;-58
2023/05/24 08:52:02;;;;;;;13.90;2.97;;;;;;;;;;5035056;28;20134;-58
2023/05/24 08:54:29;;;;;;;10.93;2.50;;;;;;;;;;5035679;28;20032;-58
2023/05/24 08:56:55;;;;;;;8.15;2.45;;;;;;;;;;5036121;28;20028;-58
2023/05/24 08:59:22;;;;;;;12.15;2.63;;;;;;;;;;5035778;28;20051;-58
2023/05/24 09:01:52;;;;;;;12.23;2.80;;;;;;;;;;5036320;28;20032;-58
2023/05/24 09:04:19;;;;;;;13.15;2.53;;;;;;;;;;5036135;28;20396;-58
2023/05/24 09:06:46;;;;;;;10.23;3.28;;;;;;;;;;5035949;28;20049;-58
2023/05/24 09:09:13;;;;;;;11.55;2.80;;;;;;;;;;5036954;28;20418;-58
2023/05/24 09:11:41;;;;;;;11.50;2.75;;;;;;;;;;5035243;28;20040;-58
2023/05/24 09:14:07;;;;;;;10.38;2.78;;;;;;;;;;5035991;28;20025;-58
2023/05/24 09:16:34;;;;;;;11.73;3.10;;;;;;;;;;5036107;28;20150;-58
2023/05/24 09:19:00;;;;;;;11.05;3.28;;;;;;;;;;5036168;28;20035;-57
2023/05/24 09:21:26;;;;;;;9.75;2.45;;;;;;;;;;5035146;28;20148;-58
2023/05/24 09:23:53;;;;;;;9.75;2.67;;;;;;;;;;5036830;28;20029;-58
2023/05/24 09:26:20;;;;;;;13.93;2.83;;;;;;;;;;5035893;28;20033;-58
2023/05/24 09:28:47;;;;;;;11.30;2.47;;;;;;;;;;5038369;28;20056;-58
2023/05/24 09:31:13;;;;;;;11.60;2.65;;;;;;;;;;5040041;28;20036;-58
2023/05/24 09:33:39;;;;;;;11.45;2.60;;;;;;;;;;5042556;28;20028;-58
2023/05/24 09:36:06;;;;;;;12.18;3.05;;;;;;;;;;5039500;28;20033;-57
2023/05/24 09:38:32;;;;;;;7.25;2.13;;;;;;;;;;5039296;28;20044;-58
2023/05/24 09:41:05;;;;;;;8.55;2.67;;;;;;;;;;5039845;28;20047;-58
2023/05/24 09:43:33;;;;;;;6.68;2.25;;;;;;;;;;5038778;28;20029;-58
2023/05/24 09:46:02;;;;;;;7.78;2.67;;;;;;;;;;5039087;28;20041;-58
2023/05/24 09:48:28;;;;;;;9.20;3.08;;;;;;;;;;5039295;28;20049;-58
2023/05/24 09:51:04;;;;;;;10.52;2.88;;;;;;;;;;5038289;28;21038;-58
2023/05/24 09:53:32;;;;;;;9.32;2.38;;;;;;;;;;5037891;28;20120;-58
2023/05/24 09:56:00;;;;;;;8.15;2.55;;;;;;;;;;5038464;28;20052;-58
2023/05/24 09:58:32;;;;;;;12.73;3.45;;;;;;;;;;5038288;28;20024;-58
2023/05/24 10:01:25;;;;;;;9.35;2.20;;;;;;;;;;5038731;28;20052;-58
2023/05/24 10:03:52;;;;;;;10.30;2.65;;;;;;;;;;5036879;28;20043;-58
2023/05/24 10:06:18;;;;;;;11.75;2.80;;;;;;;;;;5039095;28;20039;-58
2023/05/24 10:08:45;;;;;;;14.32;3.20;;;;;;;;;;5038627;28;20765;-58
2023/05/24 10:11:11;;;;;;;11.20;3.10;;;;;;;;;;5038411;28;20055;-58
2023/05/24 10:13:37;;;;;;;8.80;2.60;;;;;;;;;;5039086;28;20592;-58
2023/05/24 10:16:03;;;;;;;10.52;2.38;;;;;;;;;;5037605;28;20085;-58
2023/05/24 10:18:30;;;;;;;10.60;3.00;;;;;;;;;;5038291;28;20043;-58
2023/05/24 10:20:56;;;;;;;10.48;2.55;;;;;;;;;;5037832;28;20032;-58
2023/05/24 10:23:23;;;;;;;10.75;2.97;;;;;;;;;;5038807;28;20110;-57
2023/05/24 10:26:03;;;;;;;7.68;2.50;;;;;;;;;;5037343;28;20671;-58
2023/05/24 10:28:30;;;;;;;12.77;3.17;;;;;;;;;;5038469;28;21874;-58
2023/05/24 10:31:19;;;;;;;12.48;3.50;;;;;;;;;;5038449;28;20106;-58
2023/05/24 10:33:47;;;;;;;14.77;3.53;;;;;;;;;;5031816;28;20063;-58
2023/05/24 10:36:14;;;;;;;13.20;3.17;;;;;;;;;;5024606;28;20068;-58
2023/05/24 10:38:41;;;;;;;14.98;3.30;;;;;;;;;;5037062;28;20029;-58
2023/05/24 10:41:07;;;;;;;16.23;3.05;;;;;;;;;;5036634;28;20044;-58
2023/05/24 10:43:37;;;;;;;12.32;3.20;;;;;;;;;;5038450;28;20028;-58
2023/05/24 10:46:04;;;;;;;15.38;3.95;;;;;;;;;;5038142;28;20841;-58
2023/05/24 10:48:35;;;;;;;13.43;3.72;;;;;;;;;;5037829;28;20033;-58
2023/05/24 10:51:01;;;;;;;14.30;3.72;;;;;;;;;;5037601;28;20025;-57
2023/05/24 10:53:28;;;;;;;12.27;3.10;;;;;;;;;;5036620;28;20021;-58
2023/05/24 10:55:54;;;;;;;13.75;3.17;;;;;;;;;;5036293;28;20029;-58
2023/05/24 10:58:20;;;;;;;12.10;2.60;;;;;;;;;;5037097;28;21072;-59
2023/05/24 11:00:47;;;;;;;14.15;3.30;;;;;;;;;;5036484;28;20041;-58
2023/05/24 11:03:22;;;;;;;13.77;2.97;;;;;;;;;;5035494;28;20037;-58
2023/05/24 11:05:48;;;;;;;17.33;3.33;;;;;;;;;;5036803;28;20164;-58
2023/05/24 11:08:15;;;;;;;10.25;2.72;;;;;;;;;;5036708;28;20056;-58
2023/05/24 11:10:41;;;;;;;12.85;2.80;;;;;;;;;;5035672;28;20120;-58
2023/05/24 11:13:07;;;;;;;11.90;3.10;;;;;;;;;;5036716;28;20029;-58
2023/05/24 11:15:34;;;;;;;10.27;2.63;;;;;;;;;;5037046;28;20113;-58
2023/05/24 11:18:12;;;;;;;12.10;3.00;;;;;;;;;;5037200;28;20065;-58
2023/05/24 11:20:39;;;;;;;11.57;3.88;;;;;;;;;;5036485;28;20057;-58
2023/05/24 11:23:05;;;;;;;10.85;2.80;;;;;;;;;;5036352;28;20028;-58
2023/05/24 11:25:35;;;;;;;11.63;2.95;;;;;;;;;;5037209;28;20036;-58
2023/05/24 11:28:02;;;;;;;12.93;3.08;;;;;;;;;;5037482;28;20446;-58
2023/05/24 11:30:28;;;;;;;10.80;2.80;;;;;;;;;;5036693;28;20104;-59
2023/05/24 11:32:55;;;;;;;10.25;2.55;;;;;;;;;;5036803;28;20032;-59
2023/05/24 11:35:26;;;;;;;12.52;3.25;;;;;;;;;;5023165;28;20043;-58
2023/05/24 11:37:52;;;;;;;10.40;3.38;;;;;;;;;;5035677;28;20730;-58
2023/05/24 11:40:19;;;;;;;9.23;2.55;;;;;;;;;;5034995;28;20047;-58
2023/05/24 11:42:49;;;;;;;15.48;3.92;;;;;;;;;;5036010;28;20470;-58
2023/05/24 11:45:17;;;;;;;14.82;3.67;;;;;;;;;;5036223;28;20029;-58
2023/05/24 11:47:44;;;;;;;10.27;3.03;;;;;;;;;;5037239;28;20246;-58
2023/05/24 11:50:10;;;;;;;15.70;3.60;;;;;;;;;;5036646;28;20556;-58
2023/05/24 11:52:43;;;;;;;11.32;2.85;;;;;;;;;;5036645;28;20598;-58
2023/05/24 11:55:12;;;;;;;13.53;3.03;;;;;;;;;;5036904;28;20044;-58
2023/05/24 11:57:42;;;;;;;11.25;3.25;;;;;;;;;;5036321;28;20028;-58
2023/05/24 12:00:15;;;;;;;8.23;2.22;;;;;;;;;;5035955;28;20060;-58
2023/05/24 12:02:41;;;;;;;11.75;2.83;;;;;;;;;;5036671;28;20484;-58
2023/05/24 12:05:08;;;;;;;11.65;3.20;;;;;;;;;;5036212;28;20028;-58
2023/05/24 12:07:35;;;;;;;12.75;2.70;;;;;;;;;;5036344;28;20532;-58
2023/05/24 12:10:03;;;;;;;10.38;2.50;;;;;;;;;;5035938;28;20148;-58
2023/05/24 12:12:29;;;;;;;14.02;3.35;;;;;;;;;;5036564;28;20422;-58
2023/05/24 12:14:55;;;;;;;13.80;3.45;;;;;;;;;;5036331;28;20048;-58
2023/05/24 12:17:22;;;;;;;15.48;3.50;;;;;;;;;;5035312;28;20029;-58
2023/05/24 12:19:50;;;;;;;12.10;3.28;;;;;;;;;;5033479;28;20051;-58
2023/05/24 12:22:16;;;;;;;8.88;2.58;;;;;;;;;;5035598;28;20029;-58
2023/05/24 12:24:42;;;;;;;11.18;2.67;;;;;;;;;;5036419;28;20041;-58
2023/05/24 12:27:09;;;;;;;10.13;3.30;;;;;;;;;;5036008;28;20033;-58
2023/05/24 12:29:39;;;;;;;12.55;3.33;;;;;;;;;;5036523;28;20025;-58
2023/05/24 12:32:10;;;;;;;12.30;2.78;;;;;;;;;;5034917;28;20128;-58
2023/05/24 12:34:36;;;;;;;11.38;2.67;;;;;;;;;;5035260;28;20072;-58
2023/05/24 12:37:03;;;;;;;11.52;3.10;;;;;;;;;;5034161;28;20040;-58
2023/05/24 12:39:36;;;;;;;8.65;2.53;;;;;;;;;;5035649;28;20024;-58
2023/05/24 12:42:02;;;;;;;13.18;3.38;;;;;;;;;;5034584;28;20071;-58
2023/05/24 12:44:30;;;;;;;11.73;3.17;;;;;;;;;;5034896;28;20112;-58
2023/05/24 12:46:57;;;;;;;13.27;3.05;;;;;;;;;;5035047;28;20024;-58
2023/05/24 12:49:23;;;;;;;11.32;2.72;;;;;;;;;;5034966;28;20116;-58
2023/05/24 12:51:50;;;;;;;13.30;2.70;;;;;;;;;;5034582;28;20029;-58
2023/05/24 12:54:18;;;;;;;12.32;2.72;;;;;;;;;;5033600;28;20557;-58
2023/05/24 12:56:44;;;;;;;7.93;2.35;;;;;;;;;;5034046;28;20044;-58
2023/05/24 12:59:11;;;;;;;8.23;2.30;;;;;;;;;;5034262;28;20053;-58
2023/05/24 13:01:37;;;;;;;8.98;2.15;;;;;;;;;;5033963;28;20029;-58
2023/05/24 13:04:03;;;;;;;9.18;2.65;;;;;;;;;;5037788;28;20039;-58
2023/05/24 13:06:29;;;;;;;11.73;2.50;;;;;;;;;;5034739;28;20103;-58
2023/05/24 13:08:56;;;;;;;12.15;2.83;;;;;;;;;;5035391;28;20037;-58
2023/05/24 13:11:24;;;;;;;12.43;2.97;;;;;;;;;;5037662;28;20130;-58
2023/05/24 13:13:50;;;;;;;11.65;3.00;;;;;;;;;;5037803;28;20047;-58
2023/05/24 13:16:16;;;;;;;11.20;3.10;;;;;;;;;;5038980;28;20126;-58
2023/05/24 13:18:42;;;;;;;10.98;2.88;;;;;;;;;;5039459;28;20051;-58
2023/05/24 13:21:08;;;;;;;12.35;3.40;;;;;;;;;;5039178;28;20056;-58
2023/05/24 13:23:36;;;;;;;11.57;3.15;;;;;;;;;;5024818;28;20044;-58
2023/05/24 13:26:02;;;;;;;9.52;3.00;;;;;;;;;;5037817;28;20025;-58
2023/05/24 13:28:30;;;;;;;9.93;2.55;;;;;;;;;;5039159;28;20025;-58
2023/05/24 13:30:56;;;;;;;9.20;2.47;;;;;;;;;;5038450;28;20037;-58
2023/05/24 13:33:22;;;;;;;13.68;3.40;;;;;;;;;;5038458;28;20033;-59
2023/05/24 13:35:48;;;;;;;8.80;2.85;;;;;;;;;;5039704;28;20756;-58
2023/05/24 13:38:14;;;;;;;9.68;2.35;;;;;;;;;;5037339;28;20103;-59
2023/05/24 13:40:40;;;;;;;9.35;2.70;;;;;;;;;;5038324;28;20037;-59
2023/05/24 13:43:07;;;;;;;9.27;2.97;;;;;;;;;;5038225;28;20029;-59
2023/05/24 13:45:35;;;;;;;12.15;2.67;;;;;;;;;;5038752;28;20064;-58
2023/05/24 13:48:02;;;;;;;12.90;3.17;;;;;;;;;;5038471;28;20031;-58
2023/05/24 13:50:38;;;;;;;6.75;1.98;;;;;;;;;;5037305;28;20040;-59
2023/05/24 13:53:04;;;;;;;6.82;2.22;;;;;;;;;;5036442;28;20980;-59
2023/05/24 13:55:32;;;;;;;7.65;2.10;;;;;;;;;;5037540;28;20623;-59
2023/05/24 13:58:00;;;;;;;7.60;2.47;;;;;;;;;;5037747;28;21019;-58
2023/05/24 14:00:26;;;;;;;8.55;1.88;;;;;;;;;;5037909;28;20037;-59
2023/05/24 14:02:52;;;;;;;12.65;2.47;;;;;;;;;;5038279;28;20504;-58
2023/05/24 14:05:19;;;;;;;7.47;2.15;;;;;;;;;;5038198;28;20407;-59
2023/05/24 14:07:45;;;;;;;7.93;1.90;;;;;;;;;;5023660;28;20673;-58
2023/05/24 14:10:11;;;;;;;9.57;2.50;;;;;;;;;;5036696;28;20032;-59
2023/05/24 14:12:37;;;;;;;7.95;2.33;;;;;;;;;;5035855;28;21285;-59
2023/05/24 14:15:05;;;;;;;8.13;2.20;;;;;;;;;;5036673;28;20056;-59
2023/05/24 14:17:31;;;;;;;9.15;2.28;;;;;;;;;;5037195;28;20033;-59
2023/05/24 14:19:57;;;;;;;8.27;2.40;;;;;;;;;;5036334;28;20159;-58
2023/05/24 14:22:24;;;;;;;9.32;2.92;;;;;;;;;;5039154;28;20629;-59
2023/05/24 14:24:50;;;;;;;8.88;2.42;;;;;;;;;;5037143;28;20029;-59
2023/05/24 14:27:17;;;;;;;9.05;2.53;;;;;;;;;;5036854;28;20123;-59
2023/05/24 14:29:43;;;;;;;8.75;2.75;;;;;;;;;;5038000;28;20033;-59